Ray Brook, New York
Current Conditions -  °F | °C
As of 6:51 PM on Sunday 21 Dec 2014 (Local Time) from KSLK Reporting Station
Overcast Overcast  
Wind Chill: 22°   Ceiling: 1700
Heat Index: 22°   Visibility: 10mi
Dew Point: 19°   Wind: 0mph
Humidity: 89%   Direction: NA
Pressure: 30.25"   Gusts: NA
Location:  44.3°N, 74.09°W
Report Text: KSLK 212351Z AUTO 00000KT 10SM OVC017 M06/M07 A3025 RMK AO2 SLP273 T10561072 11044 21056 51011 $
Loading
Personal Weather Stations






























Interactive Weather Map New forecast layout! Learn more

10-Day Weather Forecast

Advertisements
Track Severe Weather on mobile